createdAt,value
2022-12-01T00:01:31.634Z,44.83
2022-12-01T00:04:04.867Z,41.28
2022-12-01T00:06:39.028Z,45.08
2022-12-01T00:09:29.367Z,41.00
2022-12-01T00:12:02.119Z,52.60
2022-12-01T00:14:35.011Z,43.65
2022-12-01T00:17:07.889Z,42.88
2022-12-01T00:19:40.650Z,45.05
2022-12-01T00:22:14.787Z,39.78
2022-12-01T00:24:47.720Z,42.27
2022-12-01T00:27:20.507Z,46.35
2022-12-01T00:29:53.404Z,43.13
2022-12-01T00:32:26.169Z,47.00
2022-12-01T00:34:59.097Z,44.40
2022-12-01T00:37:34.408Z,41.75
2022-12-01T00:40:09.089Z,37.45
2022-12-01T00:42:41.942Z,40.50
2022-12-01T00:45:14.938Z,44.33
2022-12-01T00:47:47.770Z,33.30
2022-12-01T00:50:20.731Z,35.90
2022-12-01T00:52:54.858Z,37.60
2022-12-01T00:55:27.705Z,38.43
2022-12-01T00:58:00.619Z,35.05
2022-12-01T01:00:33.394Z,39.08
2022-12-01T01:03:07.042Z,37.75
2022-12-01T01:05:41.314Z,37.58
2022-12-01T01:08:16.054Z,36.67
2022-12-01T01:10:49.531Z,39.47
2022-12-01T01:13:22.341Z,33.33
2022-12-01T01:15:59.668Z,37.30
2022-12-01T01:18:32.874Z,36.38
2022-12-01T01:21:08.766Z,38.47
2022-12-01T01:23:45.018Z,39.03
2022-12-01T01:26:19.708Z,39.40
2022-12-01T01:28:53.758Z,40.65
2022-12-01T01:31:27.946Z,42.37
2022-12-01T01:34:01.017Z,40.38
2022-12-01T01:36:33.778Z,37.05
2022-12-01T01:39:07.900Z,32.25
2022-12-01T01:41:40.673Z,36.27
2022-12-01T01:44:56.189Z,37.95
2022-12-01T01:47:33.872Z,38.08
2022-12-01T01:50:11.456Z,34.60
2022-12-01T01:52:47.363Z,35.55
2022-12-01T01:55:21.670Z,33.85
2022-12-01T01:57:54.445Z,38.40
2022-12-01T02:00:27.668Z,35.38
2022-12-01T02:03:05.044Z,24.75
2022-12-01T02:05:40.620Z,34.78
2022-12-01T02:08:13.477Z,37.17
2022-12-01T02:10:59.691Z,33.42
2022-12-01T02:13:37.847Z,30.65
2022-12-01T02:16:15.493Z,40.63
2022-12-01T02:18:55.335Z,39.33
2022-12-01T02:21:42.193Z,40.55
2022-12-01T02:24:49.563Z,46.70
2022-12-01T02:27:37.441Z,43.28
2022-12-01T02:30:12.399Z,44.35
2022-12-01T02:35:47.448Z,44.90
2022-12-01T02:38:27.208Z,54.75
2022-12-01T02:41:07.246Z,43.78
2022-12-01T02:43:46.956Z,51.75
2022-12-01T02:46:26.420Z,39.28
2022-12-01T02:49:05.320Z,43.65
2022-12-01T02:51:41.031Z,49.55
2022-12-01T02:54:16.060Z,43.65
2022-12-01T02:56:53.004Z,39.40
2022-12-01T02:59:26.010Z,36.25
2022-12-01T03:02:09.256Z,38.28
2022-12-01T03:05:00.786Z,45.97
2022-12-01T03:07:47.912Z,44.92
2022-12-01T03:10:27.544Z,40.30
2022-12-01T03:13:10.883Z,37.42
2022-12-01T03:15:55.139Z,40.97
2022-12-01T03:18:33.875Z,45.53
2022-12-01T03:21:13.298Z,38.78
2022-12-01T03:23:49.587Z,39.15
2022-12-01T03:26:25.260Z,31.65
2022-12-01T03:29:02.633Z,46.70
2022-12-01T03:31:40.835Z,39.70
2022-12-01T03:34:18.958Z,40.10
2022-12-01T03:36:56.968Z,36.22
2022-12-01T03:39:33.277Z,42.30
2022-12-01T03:42:14.894Z,38.28
2022-12-01T03:44:52.206Z,40.67
2022-12-01T03:47:29.267Z,32.88
2022-12-01T03:50:02.293Z,44.13
2022-12-01T03:52:46.643Z,36.28
2022-12-01T03:55:23.582Z,33.20
2022-12-01T03:58:02.588Z,30.02
2022-12-01T04:00:36.672Z,34.85
2022-12-01T04:03:09.971Z,37.83
2022-12-01T04:05:42.883Z,35.42
2022-12-01T04:08:17.072Z,34.13
2022-12-01T04:10:49.883Z,35.00
2022-12-01T04:13:23.114Z,33.15
2022-12-01T04:15:57.226Z,36.92
2022-12-01T04:18:30.096Z,38.13
2022-12-01T04:21:02.892Z,35.85
2022-12-01T04:23:54.382Z,42.47
2022-12-01T04:26:27.754Z,31.80
2022-12-01T04:29:00.944Z,34.20
2022-12-01T04:31:33.840Z,35.90
2022-12-01T04:34:06.948Z,31.92
2022-12-01T04:36:39.802Z,33.65
2022-12-01T04:39:13.955Z,36.58
2022-12-01T04:41:47.011Z,35.13
2022-12-01T04:44:19.778Z,38.30
2022-12-01T04:46:53.938Z,38.83
2022-12-01T04:49:27.323Z,41.35
2022-12-01T04:52:00.325Z,32.97
2022-12-01T04:54:34.536Z,38.45
2022-12-01T04:57:07.643Z,38.05
2022-12-01T04:59:40.419Z,35.47
2022-12-01T05:02:13.268Z,40.88
2022-12-01T05:04:48.086Z,34.33
2022-12-01T05:07:20.896Z,36.88
2022-12-01T05:09:55.560Z,37.28
2022-12-01T05:12:28.378Z,43.42
2022-12-01T05:15:01.099Z,45.65
2022-12-01T05:17:36.918Z,40.95
2022-12-01T05:20:33.645Z,49.72
2022-12-01T05:23:07.585Z,48.83
2022-12-01T05:25:42.419Z,43.17
2022-12-01T05:28:15.222Z,43.65
2022-12-01T05:30:48.999Z,50.78
2022-12-01T05:33:22.242Z,50.80
2022-12-01T05:35:55.482Z,48.65
2022-12-01T05:38:28.583Z,52.97
2022-12-01T05:41:02.683Z,51.75
2022-12-01T05:43:35.480Z,50.93
2022-12-01T05:46:08.912Z,53.17
2022-12-01T05:48:41.802Z,49.95
2022-12-01T05:51:17.256Z,45.10
2022-12-01T05:53:50.053Z,48.47
2022-12-01T05:56:24.185Z,53.65
2022-12-01T05:58:57.043Z,49.50
2022-12-01T06:01:29.820Z,50.55
2022-12-01T06:04:03.070Z,57.53
2022-12-01T06:06:35.940Z,56.13
2022-12-01T06:09:08.993Z,56.67
2022-12-01T06:11:43.116Z,52.53
2022-12-01T06:14:15.916Z,57.17
2022-12-01T06:16:48.732Z,66.80
2022-12-01T06:19:21.625Z,48.50
2022-12-01T06:21:54.421Z,48.35
2022-12-01T06:24:27.306Z,52.30
2022-12-01T06:27:01.484Z,49.53
2022-12-01T06:29:37.776Z,51.20
2022-12-01T06:32:14.667Z,58.03
2022-12-01T06:34:47.528Z,55.08
2022-12-01T06:37:20.361Z,57.30
2022-12-01T06:39:53.176Z,55.90
2022-12-01T06:42:31.504Z,46.33
2022-12-01T06:45:04.422Z,46.45
2022-12-01T06:47:37.369Z,51.80
2022-12-01T06:50:12.204Z,44.00
2022-12-01T06:52:45.016Z,46.60
2022-12-01T06:55:18.087Z,41.08
2022-12-01T06:57:52.399Z,43.28
2022-12-01T07:00:25.287Z,40.55
2022-12-01T07:02:58.339Z,42.00
2022-12-01T07:05:31.234Z,37.40
2022-12-01T07:08:04.468Z,36.95
2022-12-01T07:10:37.271Z,36.58
2022-12-01T07:13:11.703Z,33.17
2022-12-01T07:15:44.497Z,35.50
2022-12-01T07:18:17.256Z,37.50
2022-12-01T07:20:50.143Z,40.78
2022-12-01T07:23:22.957Z,37.00
2022-12-01T07:25:59.968Z,29.52
2022-12-01T07:28:34.601Z,32.60
2022-12-01T07:31:10.426Z,31.05
2022-12-01T07:33:43.694Z,33.90
2022-12-01T07:36:16.945Z,34.95
2022-12-01T07:38:49.745Z,38.05
2022-12-01T07:41:22.807Z,32.30
2022-12-01T07:43:57.773Z,32.88
2022-12-01T07:46:30.949Z,28.27
2022-12-01T07:49:07.631Z,29.67
2022-12-01T07:51:40.362Z,36.25
2022-12-01T07:54:14.190Z,36.95
2022-12-01T07:56:47.133Z,35.50
2022-12-01T07:59:21.234Z,36.22
2022-12-01T08:01:54.036Z,27.30
2022-12-01T08:04:29.270Z,33.67
2022-12-01T08:07:04.895Z,31.58
2022-12-01T08:09:37.680Z,31.65
2022-12-01T08:12:10.412Z,33.45
2022-12-01T08:14:44.626Z,34.67
2022-12-01T08:17:17.478Z,34.00
2022-12-01T08:19:50.722Z,31.48
2022-12-01T08:22:23.665Z,34.60
2022-12-01T08:24:56.469Z,29.70
2022-12-01T08:27:29.276Z,31.30
2022-12-01T08:30:03.642Z,36.22
2022-12-01T08:32:36.475Z,34.92
2022-12-01T08:35:10.045Z,41.15
2022-12-01T08:37:42.946Z,40.40
2022-12-01T08:40:16.206Z,40.72
2022-12-01T08:42:49.076Z,38.50
2022-12-01T08:45:23.550Z,35.10
2022-12-01T08:47:58.687Z,45.05
2022-12-01T08:50:31.469Z,40.88
2022-12-01T08:53:04.380Z,42.97
2022-12-01T08:55:37.344Z,34.97
2022-12-01T08:58:10.092Z,41.00
2022-12-01T09:00:44.185Z,38.53
2022-12-01T09:03:16.983Z,42.53
2022-12-01T09:05:49.912Z,42.47
2022-12-01T09:08:35.694Z,43.00
2022-12-01T09:11:11.087Z,36.17
2022-12-01T09:13:49.910Z,41.88
2022-12-01T09:16:27.368Z,32.92
2022-12-01T09:19:00.249Z,38.88
2022-12-01T09:21:34.718Z,31.17
2022-12-01T09:24:08.881Z,34.97
2022-12-01T09:26:41.917Z,27.27
2022-12-01T09:29:16.572Z,35.70
2022-12-01T09:31:50.903Z,28.67
2022-12-01T09:34:25.048Z,29.20
2022-12-01T09:36:59.010Z,29.57
2022-12-01T09:39:31.926Z,23.63
2022-12-01T09:42:09.520Z,23.05
2022-12-01T09:44:47.500Z,23.55
2022-12-01T09:47:26.453Z,28.90
2022-12-01T09:50:02.985Z,25.35
2022-12-01T09:52:43.824Z,28.77
2022-12-01T09:55:18.552Z,28.77
2022-12-01T09:57:53.882Z,30.40
2022-12-01T10:00:29.131Z,30.42
2022-12-01T10:03:14.662Z,29.20
2022-12-01T10:06:24.989Z,32.92
2022-12-01T10:08:51.509Z,30.40
2022-12-01T10:11:31.801Z,39.83
2022-12-01T10:14:05.861Z,33.00
2022-12-01T10:16:45.770Z,32.33
2022-12-01T10:19:29.630Z,32.25
2022-12-01T10:22:26.693Z,32.95
2022-12-01T10:25:07.819Z,33.25
2022-12-01T10:27:48.639Z,35.65
2022-12-01T10:30:23.617Z,35.25
2022-12-01T10:35:36.896Z,33.75
2022-12-01T10:38:16.575Z,39.30
2022-12-01T10:40:50.816Z,35.78
2022-12-01T10:43:29.929Z,39.17
2022-12-01T10:46:12.236Z,35.85
2022-12-01T10:48:55.195Z,39.38
2022-12-01T10:51:30.047Z,37.33
2022-12-01T10:54:11.421Z,42.78
2022-12-01T10:56:47.675Z,37.53
2022-12-01T10:59:27.702Z,36.83
2022-12-01T11:02:02.592Z,43.50
2022-12-01T11:04:44.828Z,41.95
2022-12-01T11:07:22.902Z,41.08
2022-12-01T11:10:17.193Z,43.72
2022-12-01T11:12:56.937Z,41.45
2022-12-01T11:15:33.233Z,41.42
2022-12-01T11:18:08.506Z,42.33
2022-12-01T11:20:41.968Z,43.80
2022-12-01T11:23:26.284Z,45.60
2022-12-01T11:26:04.217Z,51.93
2022-12-01T11:28:38.573Z,51.78
2022-12-01T11:31:12.413Z,48.45
2022-12-01T11:33:49.466Z,51.25
2022-12-01T11:36:26.648Z,52.65
2022-12-01T11:39:02.707Z,48.17
2022-12-01T11:41:40.588Z,51.33
2022-12-01T11:47:23.314Z,57.28
2022-12-01T11:49:59.092Z,55.70
2022-12-01T11:52:33.412Z,50.08
2022-12-01T11:55:24.806Z,55.13
2022-12-01T11:58:00.873Z,53.05
2022-12-01T12:00:44.403Z,53.53
2022-12-01T12:03:26.503Z,57.92
2022-12-01T12:06:39.078Z,57.85
2022-12-01T12:09:25.154Z,59.85
2022-12-01T12:12:08.777Z,54.67
2022-12-01T12:14:51.906Z,51.05
2022-12-01T12:17:45.212Z,61.85
2022-12-01T12:20:37.282Z,61.63
2022-12-01T12:23:27.033Z,61.85
2022-12-01T12:26:08.652Z,54.47
2022-12-01T12:29:13.505Z,62.80
2022-12-01T12:31:59.079Z,62.60
2022-12-01T12:34:42.032Z,52.95
2022-12-01T12:37:24.701Z,64.13
2022-12-01T12:40:31.690Z,57.67
2022-12-01T12:43:20.609Z,57.17
2022-12-01T12:46:07.216Z,58.55
2022-12-01T12:49:19.397Z,52.10
2022-12-01T12:51:57.284Z,49.65
2022-12-01T12:54:35.552Z,50.45
2022-12-01T12:57:19.442Z,57.17
2022-12-01T12:59:58.185Z,56.10
2022-12-01T13:02:40.117Z,53.53
2022-12-01T13:05:20.238Z,58.05
2022-12-01T13:07:59.050Z,67.03
2022-12-01T13:10:38.019Z,57.78
2022-12-01T13:13:24.141Z,59.75
2022-12-01T13:15:59.663Z,55.58
2022-12-01T13:18:41.968Z,55.33
2022-12-01T13:21:18.688Z,65.57
2022-12-01T13:23:53.390Z,60.97
2022-12-01T13:26:26.410Z,61.88
2022-12-01T13:28:59.788Z,59.38
2022-12-01T13:31:46.141Z,52.30
2022-12-01T13:34:27.330Z,60.28
2022-12-01T13:37:00.239Z,63.58
2022-12-01T13:39:36.134Z,72.20
2022-12-01T13:42:20.774Z,59.75
2022-12-01T13:44:56.900Z,60.53
2022-12-01T13:47:40.478Z,62.35
2022-12-01T13:50:55.376Z,55.90
2022-12-01T13:53:31.471Z,58.92
2022-12-01T13:56:27.303Z,59.65
2022-12-01T14:01:47.449Z,52.67
2022-12-01T14:04:31.556Z,58.03
2022-12-01T14:07:29.503Z,55.00
2022-12-01T14:10:30.974Z,51.53
2022-12-01T14:13:06.607Z,55.97
2022-12-01T14:15:43.088Z,47.90
2022-12-01T14:18:41.348Z,57.38
2022-12-01T14:21:14.797Z,55.75
2022-12-01T14:24:04.250Z,50.85
2022-12-01T14:26:46.342Z,54.60
2022-12-01T14:29:31.777Z,60.17
2022-12-01T14:35:04.306Z,59.45
2022-12-01T14:37:43.524Z,59.10
2022-12-01T14:40:29.244Z,59.13
2022-12-01T14:43:20.801Z,53.30
2022-12-01T14:46:05.517Z,49.67
2022-12-01T14:48:42.977Z,54.47
2022-12-01T14:51:26.894Z,52.72
2022-12-01T14:54:02.718Z,51.03
2022-12-01T14:56:37.416Z,58.15
2022-12-01T14:59:19.603Z,55.05
2022-12-01T15:01:54.720Z,55.95
2022-12-01T15:04:27.530Z,53.55
2022-12-01T15:07:00.377Z,61.13
2022-12-01T15:09:34.869Z,58.70
2022-12-01T15:14:59.833Z,57.92
2022-12-01T15:17:36.863Z,60.83
2022-12-01T15:20:28.102Z,55.50
2022-12-01T15:23:03.088Z,58.38
2022-12-01T15:28:15.641Z,58.97
2022-12-01T15:30:50.899Z,56.85
2022-12-01T15:33:31.638Z,58.38
2022-12-01T15:36:08.679Z,60.30
2022-12-01T15:38:43.212Z,64.50
2022-12-01T15:41:29.708Z,55.70
2022-12-01T15:44:05.393Z,57.20
2022-12-01T15:46:38.166Z,57.35
2022-12-01T15:49:19.130Z,57.75
2022-12-01T15:51:53.012Z,60.05
2022-12-01T15:54:27.323Z,56.53
2022-12-01T15:57:00.934Z,53.50
2022-12-01T15:59:39.295Z,49.42
2022-12-01T16:02:25.563Z,54.38
2022-12-01T16:05:03.690Z,52.95
2022-12-01T16:08:12.145Z,55.88
2022-12-01T16:10:33.751Z,61.83
2022-12-01T16:13:40.253Z,55.10
2022-12-01T16:16:30.839Z,55.13
2022-12-01T16:19:21.673Z,48.75
2022-12-01T16:21:58.015Z,58.83
2022-12-01T16:24:35.527Z,53.92
2022-12-01T16:27:18.379Z,55.13
2022-12-01T16:29:53.814Z,60.33
2022-12-01T16:32:34.538Z,54.50
2022-12-01T16:35:25.072Z,52.60
2022-12-01T16:37:59.188Z,53.75
2022-12-01T16:40:32.557Z,56.40
2022-12-01T16:43:05.407Z,51.05
2022-12-01T16:45:38.289Z,51.45
2022-12-01T16:48:12.953Z,49.80
2022-12-01T16:50:46.457Z,49.42
2022-12-01T16:53:20.201Z,52.75
2022-12-01T16:55:55.738Z,50.20
2022-12-01T16:58:29.050Z,50.30
2022-12-01T17:01:01.944Z,54.83
2022-12-01T17:03:38.165Z,53.35
2022-12-01T17:06:17.019Z,50.38
2022-12-01T17:08:49.958Z,55.78
2022-12-01T17:11:22.830Z,51.97
2022-12-01T17:13:56.054Z,50.33
2022-12-01T17:16:29.157Z,48.50
2022-12-01T17:19:03.582Z,51.28
2022-12-01T17:21:36.485Z,50.28
2022-12-01T17:24:09.803Z,47.80
2022-12-01T17:26:45.550Z,47.58
2022-12-01T17:29:18.332Z,53.15
2022-12-01T17:31:51.427Z,49.72
2022-12-01T17:34:25.744Z,43.55
2022-12-01T17:36:59.030Z,46.00
2022-12-01T17:39:31.797Z,47.05
2022-12-01T17:42:05.308Z,47.33
2022-12-01T17:44:38.183Z,49.55
2022-12-01T17:47:11.367Z,54.38
2022-12-01T17:49:46.764Z,52.00
2022-12-01T17:52:22.166Z,50.13
2022-12-01T17:54:58.198Z,49.85
2022-12-01T17:57:31.219Z,51.20
2022-12-01T18:00:06.142Z,51.17
2022-12-01T18:02:41.868Z,51.08
2022-12-01T18:05:16.292Z,50.20
2022-12-01T18:07:49.523Z,51.83
2022-12-01T18:10:22.626Z,53.13
2022-12-01T18:12:55.577Z,44.70
2022-12-01T18:15:34.349Z,50.58
2022-12-01T18:18:07.686Z,42.67
2022-12-01T18:20:43.456Z,43.00
2022-12-01T18:23:16.361Z,54.55
2022-12-01T18:25:49.215Z,50.97
2022-12-01T18:28:21.956Z,50.15
2022-12-01T18:30:54.749Z,53.20
2022-12-01T18:33:27.554Z,65.28
2022-12-01T18:36:01.854Z,48.92
2022-12-01T18:38:34.625Z,45.13
2022-12-01T18:41:07.837Z,48.80
2022-12-01T18:43:40.773Z,50.85
2022-12-01T18:46:14.680Z,50.20
2022-12-01T18:48:48.813Z,43.80
2022-12-01T18:51:22.982Z,50.13
2022-12-01T18:53:56.271Z,45.27
2022-12-01T18:56:29.705Z,41.60
2022-12-01T18:59:04.809Z,42.78
2022-12-01T19:01:42.457Z,39.10
2022-12-01T19:04:17.369Z,41.78
2022-12-01T19:06:52.033Z,37.65
2022-12-01T19:09:25.021Z,38.00
2022-12-01T19:12:00.081Z,41.78
2022-12-01T19:14:33.115Z,36.63
2022-12-01T19:17:06.276Z,40.92
2022-12-01T19:19:39.410Z,40.33
2022-12-01T19:22:13.806Z,34.47
2022-12-01T19:24:50.163Z,40.05
2022-12-01T19:27:23.770Z,36.20
2022-12-01T19:29:56.691Z,33.65
2022-12-01T19:32:31.815Z,35.90
2022-12-01T19:37:39.767Z,34.55
2022-12-01T19:40:14.200Z,35.50
2022-12-01T19:42:47.475Z,36.85
2022-12-01T19:45:20.433Z,35.33
2022-12-01T19:47:54.016Z,34.80
2022-12-01T19:50:46.327Z,30.70
2022-12-01T19:53:20.522Z,33.13
2022-12-01T19:55:53.410Z,34.15
2022-12-01T19:58:26.401Z,31.67
2022-12-01T20:01:04.457Z,32.30
2022-12-01T20:03:38.304Z,38.17
2022-12-01T20:06:12.910Z,36.50
2022-12-01T20:08:47.431Z,37.53
2022-12-01T20:11:20.360Z,43.63
2022-12-01T20:13:53.860Z,37.88
2022-12-01T20:16:28.603Z,34.22
2022-12-01T20:19:02.679Z,35.85
2022-12-01T20:21:39.118Z,35.85
2022-12-01T20:24:15.933Z,35.20
2022-12-01T20:26:50.612Z,33.33
2022-12-01T20:29:26.269Z,35.60
2022-12-01T20:32:02.821Z,36.72
2022-12-01T20:34:37.271Z,37.25
2022-12-01T20:37:10.868Z,33.22
2022-12-01T20:39:45.238Z,37.65
2022-12-01T20:42:19.356Z,37.40
2022-12-01T20:44:52.544Z,38.17
2022-12-01T20:47:25.945Z,32.83
2022-12-01T20:49:59.893Z,36.20
2022-12-01T20:52:32.619Z,32.20
2022-12-01T20:55:08.070Z,36.67
2022-12-01T20:57:40.951Z,36.33
2022-12-01T21:00:15.662Z,39.35
2022-12-01T21:02:49.002Z,37.22
2022-12-01T21:05:21.940Z,39.10
2022-12-01T21:07:55.777Z,41.28
2022-12-01T21:10:30.193Z,39.47
2022-12-01T21:13:35.467Z,36.97
2022-12-01T21:16:14.613Z,36.83
2022-12-01T21:18:52.406Z,35.30
2022-12-01T21:21:27.554Z,42.30
2022-12-01T21:24:11.873Z,39.67
2022-12-01T21:26:51.489Z,40.85
2022-12-01T21:29:26.866Z,41.30
2022-12-01T21:32:01.547Z,45.88
2022-12-01T21:34:36.274Z,39.90
2022-12-01T21:37:15.169Z,43.15
2022-12-01T21:39:50.798Z,40.22
2022-12-01T21:42:27.761Z,42.50
2022-12-01T21:45:01.768Z,31.40
2022-12-01T21:47:36.046Z,32.67
2022-12-01T21:50:17.534Z,35.40
2022-12-01T21:52:51.824Z,39.00
2022-12-01T21:55:36.838Z,29.65
2022-12-01T21:58:24.789Z,33.42
2022-12-01T22:01:00.132Z,33.42
2022-12-01T22:03:34.916Z,35.22
2022-12-01T22:06:31.745Z,32.58
2022-12-01T22:09:19.781Z,34.15
2022-12-01T22:11:54.886Z,39.45
2022-12-01T22:14:33.416Z,39.63
2022-12-01T22:17:17.325Z,45.90
2022-12-01T22:19:56.830Z,38.40
2022-12-01T22:22:32.411Z,36.88
2022-12-01T22:25:21.024Z,39.13
2022-12-01T22:27:54.428Z,42.58
2022-12-01T22:30:28.918Z,41.17
2022-12-01T22:33:04.022Z,38.08
2022-12-01T22:35:42.919Z,43.55
2022-12-01T22:38:32.226Z,38.88
2022-12-01T22:41:07.394Z,36.45
2022-12-01T22:43:46.662Z,37.42
2022-12-01T22:46:26.852Z,35.00
2022-12-01T22:49:01.979Z,35.22
2022-12-01T22:54:35.655Z,41.15
2022-12-01T22:57:19.398Z,36.95
2022-12-01T22:59:53.022Z,38.85
2022-12-01T23:02:31.948Z,42.50
2022-12-01T23:05:19.997Z,38.83
2022-12-01T23:07:53.951Z,40.20
2022-12-01T23:10:31.298Z,37.58
2022-12-01T23:13:26.773Z,38.58
2022-12-01T23:16:02.591Z,42.33
2022-12-01T23:18:36.783Z,39.50
2022-12-01T23:21:09.532Z,41.00
2022-12-01T23:23:42.356Z,37.10
2022-12-01T23:26:15.198Z,38.97
2022-12-01T23:28:47.930Z,40.45
2022-12-01T23:31:20.728Z,46.17
2022-12-01T23:33:54.939Z,39.15
2022-12-01T23:36:29.539Z,40.13
2022-12-01T23:39:05.404Z,41.42
2022-12-01T23:41:40.384Z,40.58
2022-12-01T23:46:52.849Z,37.75
2022-12-01T23:49:30.823Z,38.30
2022-12-01T23:52:04.888Z,35.88
2022-12-01T23:54:39.777Z,38.20
2022-12-01T23:57:19.302Z,38.15
2022-12-01T23:59:55.733Z,38.58
